EWG84G EDDS-LICC
Flight info
| Callsign | EWG84G |
|---|---|
| Flight time | 1h 58m |
| Altitude | 35000 |
| Route | ROTWE5B/25 ROTWE Y126 TUBLO N850 NATOR DCT TRA DCT RIPUS DCT GERSA DCT SOSON DCT ODINA DCT VAKOR DCT PELEN Q789 UXUTA |
| Aircraft | A321/M-SDE2E3FGIJ1LORWXY/HB1 |
Departure
| Time | 2026-05-06 18:34 |
|---|---|
| Airport | Stuttgart Airport (EDDS) |
Arrival
| Time | 2026-05-06 20:33 |
|---|---|
| Airport | Catania-Fontanarossa Airport (LICC) |
| Time | Latitude | Longitude | Altitude | Speed | Heading |
|---|---|---|---|---|---|
| 2026-05-06 17:52 | 48.68866 | 9.19290 | 1316 ft | 0 kts | 344° |
| 2026-05-06 18:15 | 48.68852 | 9.19296 | 1315 ft | 4 kts | 344° |
| 2026-05-06 18:15 | 48.68828 | 9.19306 | 1315 ft | 2 kts | 344° |
| 2026-05-06 18:16 | 48.68807 | 9.19320 | 1314 ft | 4 kts | 306° |
| 2026-05-06 18:16 | 48.68802 | 9.19354 | 1314 ft | 4 kts | 257° |
| 2026-05-06 18:16 | 48.68804 | 9.19370 | 1313 ft | 1 kts | 254° |
| 2026-05-06 18:18 | 48.68804 | 9.19369 | 1313 ft | 1 kts | 254° |
| 2026-05-06 18:19 | 48.68797 | 9.19332 | 1314 ft | 7 kts | 254° |
| 2026-05-06 18:19 | 48.68779 | 9.19238 | 1315 ft | 10 kts | 254° |
| 2026-05-06 18:19 | 48.68751 | 9.19153 | 1318 ft | 9 kts | 219° |
| 2026-05-06 18:19 | 48.68693 | 9.19155 | 1317 ft | 10 kts | 165° |
| 2026-05-06 18:20 | 48.68641 | 9.19229 | 1313 ft | 13 kts | 89° |
| 2026-05-06 18:20 | 48.68669 | 9.19382 | 1309 ft | 17 kts | 74° |
| 2026-05-06 18:20 | 48.68701 | 9.19552 | 1305 ft | 14 kts | 74° |
| 2026-05-06 18:20 | 48.68730 | 9.19704 | 1300 ft | 14 kts | 73° |
| 2026-05-06 18:21 | 48.68751 | 9.19813 | 1298 ft | 12 kts | 73° |
| 2026-05-06 18:21 | 48.68794 | 9.19937 | 1295 ft | 15 kts | 51° |
| 2026-05-06 18:21 | 48.68845 | 9.20069 | 1294 ft | 15 kts | 73° |
| 2026-05-06 18:21 | 48.68878 | 9.20243 | 1290 ft | 19 kts | 74° |
| 2026-05-06 18:22 | 48.68918 | 9.20452 | 1284 ft | 23 kts | 74° |
| 2026-05-06 18:22 | 48.68964 | 9.20697 | 1278 ft | 25 kts | 74° |
| 2026-05-06 18:22 | 48.69003 | 9.20901 | 1273 ft | 19 kts | 74° |
| 2026-05-06 18:22 | 48.69042 | 9.21107 | 1271 ft | 22 kts | 74° |
| 2026-05-06 18:23 | 48.69086 | 9.21337 | 1263 ft | 24 kts | 74° |
| 2026-05-06 18:23 | 48.69120 | 9.21515 | 1269 ft | 16 kts | 73° |
| 2026-05-06 18:23 | 48.69154 | 9.21694 | 1263 ft | 19 kts | 74° |
| 2026-05-06 18:23 | 48.69192 | 9.21900 | 1262 ft | 22 kts | 74° |
| 2026-05-06 18:24 | 48.69233 | 9.22119 | 1248 ft | 21 kts | 74° |
| 2026-05-06 18:24 | 48.69276 | 9.22344 | 1238 ft | 24 kts | 73° |
| 2026-05-06 18:24 | 48.69326 | 9.22601 | 1236 ft | 27 kts | 73° |
| 2026-05-06 18:24 | 48.69380 | 9.22887 | 1228 ft | 29 kts | 74° |
| 2026-05-06 18:25 | 48.69437 | 9.23187 | 1222 ft | 29 kts | 74° |
| 2026-05-06 18:25 | 48.69492 | 9.23483 | 1216 ft | 30 kts | 74° |
| 2026-05-06 18:25 | 48.69542 | 9.23739 | 1210 ft | 23 kts | 74° |
| 2026-05-06 18:25 | 48.69581 | 9.23946 | 1206 ft | 19 kts | 74° |
| 2026-05-06 18:26 | 48.69608 | 9.24090 | 1202 ft | 13 kts | 74° |
| 2026-05-06 18:26 | 48.69607 | 9.24160 | 1200 ft | 0 kts | 107° |
| 2026-05-06 18:28 | 48.69604 | 9.24172 | 1199 ft | 4 kts | 115° |
| 2026-05-06 18:28 | 48.69579 | 9.24239 | 1196 ft | 10 kts | 119° |
| 2026-05-06 18:28 | 48.69553 | 9.24288 | 1193 ft | 0 kts | 145° |
| 2026-05-06 18:31 | 48.69553 | 9.24289 | 1193 ft | 0 kts | 146° |
| 2026-05-06 18:31 | 48.69530 | 9.24304 | 1192 ft | 6 kts | 163° |
| 2026-05-06 18:31 | 48.69495 | 9.24318 | 1190 ft | 0 kts | 165° |
| 2026-05-06 18:32 | 48.69488 | 9.24322 | 1190 ft | 3 kts | 165° |
| 2026-05-06 18:32 | 48.69456 | 9.24335 | 1190 ft | 6 kts | 165° |
| 2026-05-06 18:32 | 48.69417 | 9.24351 | 1190 ft | 6 kts | 165° |
| 2026-05-06 18:33 | 48.69390 | 9.24322 | 1191 ft | 4 kts | 248° |
| 2026-05-06 18:33 | 48.69389 | 9.24311 | 1191 ft | 0 kts | 253° |
| 2026-05-06 18:33 | 48.69387 | 9.24302 | 1191 ft | 5 kts | 253° |
| 2026-05-06 18:33 | 48.69318 | 9.23945 | 1198 ft | 71 kts | 253° |
| 2026-05-06 18:34 | 48.69121 | 9.22901 | 1219 ft | 133 kts | 254° |
| 2026-05-06 18:34 | 48.68824 | 9.21317 | 1388 ft | 170 kts | 253° |
| 2026-05-06 18:34 | 48.68533 | 9.19621 | 2235 ft | 164 kts | 255° |
| 2026-05-06 18:34 | 48.68230 | 9.17957 | 2863 ft | 168 kts | 254° |
| 2026-05-06 18:35 | 48.68010 | 9.16782 | 3042 ft | 182 kts | 254° |
| 2026-05-06 18:35 | 48.67643 | 9.14833 | 3226 ft | 203 kts | 254° |
| 2026-05-06 18:35 | 48.67231 | 9.12663 | 3437 ft | 225 kts | 254° |
| 2026-05-06 18:35 | 48.66778 | 9.10292 | 3826 ft | 241 kts | 254° |
| 2026-05-06 18:36 | 48.66303 | 9.07824 | 4516 ft | 246 kts | 254° |
| 2026-05-06 18:36 | 48.65818 | 9.05313 | 5217 ft | 251 kts | 254° |
| 2026-05-06 18:36 | 48.65326 | 9.02764 | 5893 ft | 255 kts | 253° |
| 2026-05-06 18:36 | 48.64822 | 9.00163 | 6537 ft | 260 kts | 253° |
| 2026-05-06 18:37 | 48.64308 | 8.97524 | 7188 ft | 263 kts | 253° |
| 2026-05-06 18:37 | 48.63785 | 8.94850 | 7847 ft | 267 kts | 253° |
| 2026-05-06 18:37 | 48.63148 | 8.92202 | 8495 ft | 271 kts | 240° |
| 2026-05-06 18:37 | 48.61920 | 8.90043 | 9137 ft | 275 kts | 221° |
| 2026-05-06 18:38 | 48.60464 | 8.88146 | 9800 ft | 278 kts | 221° |
| 2026-05-06 18:38 | 48.58977 | 8.86219 | 10206 ft | 291 kts | 221° |
| 2026-05-06 18:38 | 48.57387 | 8.84153 | 10337 ft | 311 kts | 221° |
| 2026-05-06 18:38 | 48.55697 | 8.81958 | 10499 ft | 329 kts | 221° |
| 2026-05-06 18:39 | 48.53942 | 8.79678 | 10943 ft | 335 kts | 221° |
| 2026-05-06 18:39 | 48.52168 | 8.77377 | 11510 ft | 338 kts | 221° |
| 2026-05-06 18:39 | 48.50378 | 8.75056 | 12106 ft | 341 kts | 221° |
| 2026-05-06 18:40 | 48.46759 | 8.70368 | 13297 ft | 345 kts | 220° |
| 2026-05-06 18:40 | 48.44931 | 8.68001 | 13866 ft | 348 kts | 220° |
| 2026-05-06 18:40 | 48.43091 | 8.65618 | 14374 ft | 350 kts | 220° |
| 2026-05-06 18:40 | 48.41233 | 8.63219 | 14882 ft | 354 kts | 220° |
| 2026-05-06 18:41 | 48.39356 | 8.60796 | 15342 ft | 357 kts | 220° |
| 2026-05-06 18:41 | 48.37470 | 8.58360 | 15869 ft | 359 kts | 220° |
| 2026-05-06 18:41 | 48.35569 | 8.55907 | 16416 ft | 360 kts | 220° |
| 2026-05-06 18:41 | 48.33658 | 8.53446 | 16873 ft | 364 kts | 220° |
| 2026-05-06 18:42 | 48.31724 | 8.50962 | 17332 ft | 368 kts | 220° |
| 2026-05-06 18:42 | 48.29772 | 8.48461 | 17801 ft | 371 kts | 220° |
| 2026-05-06 18:42 | 48.27828 | 8.45972 | 18261 ft | 373 kts | 220° |
| 2026-05-06 18:42 | 48.25843 | 8.43433 | 18660 ft | 376 kts | 220° |
| 2026-05-06 18:43 | 48.23818 | 8.40845 | 19033 ft | 379 kts | 220° |
| 2026-05-06 18:43 | 48.21828 | 8.38301 | 19437 ft | 382 kts | 220° |
| 2026-05-06 18:43 | 48.19698 | 8.35932 | 19823 ft | 384 kts | 210° |
| 2026-05-06 18:43 | 48.17263 | 8.34257 | 20202 ft | 386 kts | 198° |
| 2026-05-06 18:44 | 48.14635 | 8.33396 | 20553 ft | 390 kts | 186° |
| 2026-05-06 18:44 | 48.11923 | 8.33395 | 20975 ft | 391 kts | 174° |
| 2026-05-06 18:44 | 48.09235 | 8.34030 | 21492 ft | 390 kts | 172° |
| 2026-05-06 18:44 | 48.06555 | 8.34691 | 21955 ft | 391 kts | 172° |
| 2026-05-06 18:45 | 48.03852 | 8.35345 | 22276 ft | 395 kts | 172° |
| 2026-05-06 18:45 | 48.01130 | 8.35996 | 22626 ft | 398 kts | 172° |
| 2026-05-06 18:45 | 47.98389 | 8.36649 | 22989 ft | 401 kts | 172° |
| 2026-05-06 18:45 | 47.95621 | 8.37311 | 23358 ft | 403 kts | 171° |
| 2026-05-06 18:46 | 47.92841 | 8.37980 | 23672 ft | 406 kts | 171° |
| 2026-05-06 18:46 | 47.90054 | 8.38651 | 24063 ft | 406 kts | 172° |
| 2026-05-06 18:46 | 47.87261 | 8.39322 | 24428 ft | 407 kts | 173° |
| 2026-05-06 18:46 | 47.84471 | 8.39992 | 24839 ft | 406 kts | 173° |
| 2026-05-06 18:47 | 47.81680 | 8.40663 | 25169 ft | 408 kts | 172° |
| 2026-05-06 18:47 | 47.78865 | 8.41337 | 25433 ft | 411 kts | 173° |
| 2026-05-06 18:47 | 47.76036 | 8.42011 | 25756 ft | 412 kts | 172° |
| 2026-05-06 18:47 | 47.73189 | 8.42689 | 25994 ft | 416 kts | 172° |
| 2026-05-06 18:48 | 47.70329 | 8.43372 | 26323 ft | 417 kts | 173° |
| 2026-05-06 18:48 | 47.67476 | 8.44016 | 26760 ft | 414 kts | 174° |
| 2026-05-06 18:48 | 47.64619 | 8.44525 | 27182 ft | 412 kts | 176° |
| 2026-05-06 18:48 | 47.61763 | 8.44937 | 27544 ft | 412 kts | 177° |
| 2026-05-06 18:49 | 47.58900 | 8.45303 | 27875 ft | 413 kts | 177° |
| 2026-05-06 18:49 | 47.56033 | 8.45665 | 28203 ft | 414 kts | 177° |
| 2026-05-06 18:49 | 47.53166 | 8.46041 | 28510 ft | 415 kts | 177° |
| 2026-05-06 18:49 | 47.50290 | 8.46440 | 28794 ft | 416 kts | 177° |
| 2026-05-06 18:50 | 47.47409 | 8.46855 | 29092 ft | 416 kts | 177° |
| 2026-05-06 18:50 | 47.44531 | 8.47277 | 29392 ft | 416 kts | 177° |
| 2026-05-06 18:50 | 47.41647 | 8.47709 | 29661 ft | 417 kts | 177° |
| 2026-05-06 18:50 | 47.38757 | 8.48143 | 29904 ft | 418 kts | 177° |
| 2026-05-06 18:51 | 47.35868 | 8.48575 | 30151 ft | 417 kts | 177° |
| 2026-05-06 18:51 | 47.32983 | 8.49001 | 30373 ft | 416 kts | 177° |
| 2026-05-06 18:51 | 47.30101 | 8.49421 | 30618 ft | 416 kts | 178° |
| 2026-05-06 18:51 | 47.27220 | 8.49837 | 30854 ft | 416 kts | 178° |
| 2026-05-06 18:52 | 47.24347 | 8.50252 | 31097 ft | 415 kts | 178° |
| 2026-05-06 18:52 | 47.21471 | 8.50672 | 31330 ft | 415 kts | 178° |
| 2026-05-06 18:52 | 47.18593 | 8.51094 | 31552 ft | 415 kts | 178° |
| 2026-05-06 18:52 | 47.15721 | 8.51514 | 31767 ft | 415 kts | 178° |
| 2026-05-06 18:53 | 47.12844 | 8.51930 | 31982 ft | 415 kts | 178° |
| 2026-05-06 18:53 | 47.09966 | 8.52343 | 32203 ft | 416 kts | 178° |
| 2026-05-06 18:53 | 47.07086 | 8.52755 | 32438 ft | 416 kts | 178° |
| 2026-05-06 18:53 | 47.04210 | 8.53168 | 32688 ft | 414 kts | 179° |
| 2026-05-06 18:54 | 47.01346 | 8.53586 | 32973 ft | 413 kts | 179° |
| 2026-05-06 18:54 | 46.98488 | 8.54002 | 33227 ft | 413 kts | 179° |
| 2026-05-06 18:54 | 46.95669 | 8.54409 | 33439 ft | 413 kts | 179° |
| 2026-05-06 18:54 | 46.92811 | 8.54820 | 33617 ft | 413 kts | 179° |
| 2026-05-06 18:55 | 46.89954 | 8.55232 | 33817 ft | 413 kts | 179° |
| 2026-05-06 18:55 | 46.87094 | 8.55644 | 33980 ft | 413 kts | 179° |
| 2026-05-06 18:55 | 46.84230 | 8.56055 | 34127 ft | 413 kts | 179° |
| 2026-05-06 18:55 | 46.81371 | 8.56467 | 34312 ft | 413 kts | 179° |
| 2026-05-06 18:56 | 46.78511 | 8.56879 | 34472 ft | 413 kts | 179° |
| 2026-05-06 18:56 | 46.75656 | 8.57290 | 34644 ft | 412 kts | 179° |
| 2026-05-06 18:56 | 46.72804 | 8.57702 | 34845 ft | 412 kts | 179° |
| 2026-05-06 18:57 | 46.67089 | 8.58518 | 34934 ft | 413 kts | 179° |
| 2026-05-06 18:57 | 46.61387 | 8.59325 | 34938 ft | 410 kts | 179° |
| 2026-05-06 18:58 | 46.55710 | 8.60120 | 34934 ft | 409 kts | 179° |
| 2026-05-06 18:58 | 46.50038 | 8.60930 | 34933 ft | 410 kts | 179° |
| 2026-05-06 18:59 | 46.44358 | 8.61734 | 34933 ft | 410 kts | 179° |
| 2026-05-06 18:59 | 46.38675 | 8.62526 | 34915 ft | 409 kts | 179° |
| 2026-05-06 19:00 | 46.32991 | 8.63323 | 34920 ft | 411 kts | 179° |
| 2026-05-06 19:00 | 46.27303 | 8.64128 | 34921 ft | 411 kts | 179° |
| 2026-05-06 19:01 | 46.21616 | 8.64938 | 34904 ft | 410 kts | 179° |
| 2026-05-06 19:01 | 46.15928 | 8.65735 | 34930 ft | 410 kts | 180° |
| 2026-05-06 19:02 | 46.10288 | 8.67169 | 34928 ft | 419 kts | 166° |
| 2026-05-06 19:02 | 46.05062 | 8.71141 | 34903 ft | 429 kts | 155° |
| 2026-05-06 19:03 | 45.99955 | 8.75581 | 34869 ft | 429 kts | 156° |
| 2026-05-06 19:03 | 45.94824 | 8.79995 | 34885 ft | 430 kts | 156° |
| 2026-05-06 19:04 | 45.89691 | 8.84399 | 34899 ft | 430 kts | 156° |
| 2026-05-06 19:04 | 45.84559 | 8.88801 | 34899 ft | 430 kts | 156° |
| 2026-05-06 19:05 | 45.79463 | 8.93167 | 34885 ft | 430 kts | 156° |
| 2026-05-06 19:05 | 45.74324 | 8.97562 | 34896 ft | 430 kts | 156° |
| 2026-05-06 19:06 | 45.69182 | 9.01948 | 34899 ft | 430 kts | 156° |
| 2026-05-06 19:06 | 45.64039 | 9.06313 | 34901 ft | 429 kts | 157° |
| 2026-05-06 19:07 | 45.58916 | 9.10667 | 34887 ft | 428 kts | 156° |
| 2026-05-06 19:07 | 45.53795 | 9.15012 | 34897 ft | 428 kts | 156° |
| 2026-05-06 19:08 | 45.48675 | 9.19349 | 34904 ft | 428 kts | 156° |
| 2026-05-06 19:08 | 45.43556 | 9.23675 | 34907 ft | 428 kts | 157° |
| 2026-05-06 19:09 | 45.38435 | 9.27992 | 34875 ft | 428 kts | 157° |
| 2026-05-06 19:09 | 45.33305 | 9.32296 | 34859 ft | 428 kts | 157° |
| 2026-05-06 19:10 | 45.28180 | 9.36596 | 34887 ft | 428 kts | 157° |
| 2026-05-06 19:10 | 45.23048 | 9.40888 | 34906 ft | 428 kts | 158° |
| 2026-05-06 19:11 | 45.17917 | 9.45172 | 34863 ft | 428 kts | 158° |
| 2026-05-06 19:11 | 45.12785 | 9.49439 | 34874 ft | 427 kts | 158° |
| 2026-05-06 19:12 | 45.07655 | 9.53701 | 34880 ft | 427 kts | 158° |
| 2026-05-06 19:12 | 45.02525 | 9.57957 | 34881 ft | 427 kts | 158° |
| 2026-05-06 19:13 | 44.97432 | 9.62176 | 34852 ft | 427 kts | 158° |
| 2026-05-06 19:13 | 44.92314 | 9.66409 | 34870 ft | 427 kts | 158° |
| 2026-05-06 19:14 | 44.87190 | 9.70632 | 34878 ft | 426 kts | 158° |
| 2026-05-06 19:14 | 44.82067 | 9.74840 | 34879 ft | 426 kts | 158° |
| 2026-05-06 19:15 | 44.76942 | 9.79045 | 34867 ft | 426 kts | 158° |
| 2026-05-06 19:15 | 44.71822 | 9.83243 | 34894 ft | 426 kts | 158° |
| 2026-05-06 19:16 | 44.66708 | 9.87432 | 34895 ft | 425 kts | 158° |
| 2026-05-06 19:16 | 44.61610 | 9.91593 | 34927 ft | 424 kts | 158° |
| 2026-05-06 19:17 | 44.56516 | 9.95737 | 34941 ft | 423 kts | 159° |
| 2026-05-06 19:17 | 44.51424 | 9.99872 | 34927 ft | 423 kts | 158° |
| 2026-05-06 19:18 | 44.46327 | 10.04011 | 34927 ft | 424 kts | 158° |
| 2026-05-06 19:18 | 44.41223 | 10.08147 | 34945 ft | 424 kts | 158° |
| 2026-05-06 19:19 | 44.36118 | 10.12264 | 34955 ft | 424 kts | 158° |
| 2026-05-06 19:19 | 44.31005 | 10.16374 | 34979 ft | 424 kts | 158° |
| 2026-05-06 19:20 | 44.25885 | 10.20487 | 34969 ft | 425 kts | 158° |
| 2026-05-06 19:20 | 44.20804 | 10.24570 | 34976 ft | 424 kts | 159° |
| 2026-05-06 19:21 | 44.15692 | 10.28663 | 34983 ft | 423 kts | 159° |
| 2026-05-06 19:21 | 44.10575 | 10.32753 | 34950 ft | 425 kts | 158° |
| 2026-05-06 19:22 | 44.05434 | 10.36859 | 34958 ft | 427 kts | 158° |
| 2026-05-06 19:22 | 44.00284 | 10.40962 | 34957 ft | 427 kts | 158° |
| 2026-05-06 19:23 | 43.95955 | 10.44395 | 34965 ft | 429 kts | 158° |
| 2026-05-06 19:23 | 43.90780 | 10.48504 | 34951 ft | 428 kts | 158° |
| 2026-05-06 19:24 | 43.85626 | 10.52582 | 34959 ft | 430 kts | 158° |
| 2026-05-06 19:24 | 43.80426 | 10.56686 | 34962 ft | 430 kts | 158° |
| 2026-05-06 19:25 | 43.75222 | 10.60792 | 34947 ft | 431 kts | 158° |
| 2026-05-06 19:25 | 43.70018 | 10.64899 | 34946 ft | 431 kts | 158° |
| 2026-05-06 19:26 | 43.64795 | 10.69002 | 34956 ft | 432 kts | 158° |
| 2026-05-06 19:26 | 43.59563 | 10.73096 | 34966 ft | 432 kts | 158° |
| 2026-05-06 19:27 | 43.54329 | 10.77193 | 34977 ft | 433 kts | 158° |
| 2026-05-06 19:27 | 43.49093 | 10.81278 | 34967 ft | 432 kts | 158° |
| 2026-05-06 19:28 | 43.43855 | 10.85361 | 34977 ft | 433 kts | 158° |
| 2026-05-06 19:28 | 43.38617 | 10.89427 | 34980 ft | 433 kts | 158° |
| 2026-05-06 19:29 | 43.33369 | 10.93494 | 34984 ft | 433 kts | 158° |
| 2026-05-06 19:29 | 43.28122 | 10.97563 | 34969 ft | 433 kts | 158° |
| 2026-05-06 19:30 | 43.22874 | 11.01626 | 34978 ft | 433 kts | 158° |
| 2026-05-06 19:30 | 43.17629 | 11.05675 | 34984 ft | 433 kts | 158° |
| 2026-05-06 19:31 | 43.12377 | 11.09714 | 34987 ft | 433 kts | 158° |
| 2026-05-06 19:31 | 43.04498 | 11.15752 | 34973 ft | 433 kts | 158° |
| 2026-05-06 19:32 | 42.99282 | 11.19746 | 34978 ft | 433 kts | 158° |
| 2026-05-06 19:32 | 42.94031 | 11.23758 | 34989 ft | 432 kts | 158° |
| 2026-05-06 19:33 | 42.88783 | 11.27769 | 34990 ft | 432 kts | 158° |
| 2026-05-06 19:33 | 42.83542 | 11.31766 | 34965 ft | 432 kts | 158° |
| 2026-05-06 19:34 | 42.78299 | 11.35750 | 34992 ft | 431 kts | 158° |
| 2026-05-06 19:34 | 42.73064 | 11.39719 | 35000 ft | 430 kts | 158° |
| 2026-05-06 19:35 | 42.67832 | 11.43673 | 35000 ft | 430 kts | 158° |
| 2026-05-06 19:35 | 42.62609 | 11.47618 | 34993 ft | 429 kts | 158° |
| 2026-05-06 19:36 | 42.57394 | 11.51557 | 34992 ft | 429 kts | 158° |
| 2026-05-06 19:36 | 42.52177 | 11.55483 | 34994 ft | 429 kts | 158° |
| 2026-05-06 19:37 | 42.46962 | 11.59400 | 34998 ft | 429 kts | 158° |
| 2026-05-06 19:37 | 42.41736 | 11.63316 | 34981 ft | 429 kts | 158° |
| 2026-05-06 19:38 | 42.36506 | 11.67226 | 35003 ft | 430 kts | 158° |
| 2026-05-06 19:38 | 42.31272 | 11.71124 | 35001 ft | 429 kts | 158° |
| 2026-05-06 19:39 | 42.26046 | 11.75031 | 35015 ft | 429 kts | 158° |
| 2026-05-06 19:39 | 42.20831 | 11.78920 | 35015 ft | 428 kts | 158° |
| 2026-05-06 19:40 | 42.15610 | 11.82790 | 35015 ft | 428 kts | 159° |
| 2026-05-06 19:40 | 42.10426 | 11.86624 | 35015 ft | 428 kts | 158° |
| 2026-05-06 19:41 | 42.05212 | 11.90487 | 35019 ft | 428 kts | 158° |
| 2026-05-06 19:41 | 41.99966 | 11.94371 | 35018 ft | 428 kts | 158° |
| 2026-05-06 19:42 | 41.94787 | 11.98191 | 35006 ft | 427 kts | 158° |
| 2026-05-06 19:42 | 41.89569 | 12.02022 | 35012 ft | 427 kts | 159° |
| 2026-05-06 19:43 | 41.84347 | 12.05848 | 34997 ft | 428 kts | 158° |
| 2026-05-06 19:43 | 41.79118 | 12.09678 | 35002 ft | 429 kts | 158° |
| 2026-05-06 19:44 | 41.73889 | 12.13508 | 34996 ft | 429 kts | 158° |
| 2026-05-06 19:44 | 41.68644 | 12.17333 | 35001 ft | 429 kts | 158° |
| 2026-05-06 19:45 | 41.63393 | 12.21159 | 35005 ft | 430 kts | 158° |
| 2026-05-06 19:45 | 41.58137 | 12.24980 | 35011 ft | 430 kts | 158° |
| 2026-05-06 19:46 | 41.52879 | 12.28797 | 34997 ft | 430 kts | 158° |
| 2026-05-06 19:46 | 41.47614 | 12.32604 | 34996 ft | 431 kts | 158° |
| 2026-05-06 19:47 | 41.42346 | 12.36414 | 35018 ft | 431 kts | 158° |
| 2026-05-06 19:47 | 41.37073 | 12.40226 | 35015 ft | 431 kts | 158° |
| 2026-05-06 19:48 | 41.31797 | 12.44034 | 35018 ft | 431 kts | 158° |
| 2026-05-06 19:48 | 41.26516 | 12.47833 | 35007 ft | 432 kts | 158° |
| 2026-05-06 19:49 | 41.21235 | 12.51614 | 35021 ft | 432 kts | 158° |
| 2026-05-06 19:49 | 41.15949 | 12.55402 | 35029 ft | 432 kts | 158° |
| 2026-05-06 19:50 | 41.10663 | 12.59188 | 35034 ft | 432 kts | 158° |
| 2026-05-06 19:50 | 41.05414 | 12.62950 | 35020 ft | 432 kts | 158° |
| 2026-05-06 19:51 | 41.00123 | 12.66720 | 35025 ft | 432 kts | 158° |
| 2026-05-06 19:51 | 40.94827 | 12.70479 | 35028 ft | 432 kts | 158° |
| 2026-05-06 19:52 | 40.89537 | 12.74232 | 35030 ft | 432 kts | 158° |
| 2026-05-06 19:52 | 40.84241 | 12.77985 | 35002 ft | 432 kts | 157° |
| 2026-05-06 19:53 | 40.78949 | 12.81732 | 35024 ft | 431 kts | 157° |
| 2026-05-06 19:53 | 40.73660 | 12.85466 | 35035 ft | 431 kts | 157° |
| 2026-05-06 19:54 | 40.68372 | 12.89194 | 35040 ft | 431 kts | 157° |
| 2026-05-06 19:54 | 40.63083 | 12.92912 | 35045 ft | 431 kts | 157° |
| 2026-05-06 19:55 | 40.57796 | 12.96626 | 35042 ft | 431 kts | 157° |
| 2026-05-06 19:55 | 40.52517 | 13.00331 | 35046 ft | 430 kts | 157° |
| 2026-05-06 19:56 | 40.47231 | 13.04030 | 35051 ft | 430 kts | 157° |
| 2026-05-06 19:56 | 40.41944 | 13.07720 | 35054 ft | 430 kts | 157° |
| 2026-05-06 19:57 | 40.36657 | 13.11404 | 35042 ft | 430 kts | 157° |
| 2026-05-06 19:57 | 40.31375 | 13.15080 | 35034 ft | 430 kts | 157° |
| 2026-05-06 19:58 | 40.26126 | 13.18731 | 35036 ft | 430 kts | 157° |
| 2026-05-06 19:58 | 40.20837 | 13.22404 | 35044 ft | 430 kts | 157° |
| 2026-05-06 19:59 | 40.15549 | 13.26066 | 35049 ft | 430 kts | 157° |
| 2026-05-06 19:59 | 40.10251 | 13.29720 | 35037 ft | 431 kts | 157° |
| 2026-05-06 20:00 | 40.04950 | 13.33372 | 35048 ft | 431 kts | 157° |
| 2026-05-06 20:00 | 39.99650 | 13.37029 | 35066 ft | 431 kts | 157° |
| 2026-05-06 20:01 | 39.94344 | 13.40678 | 35062 ft | 431 kts | 157° |
| 2026-05-06 20:01 | 39.89039 | 13.44322 | 35054 ft | 431 kts | 157° |
| 2026-05-06 20:02 | 39.83739 | 13.47948 | 34985 ft | 430 kts | 154° |
| 2026-05-06 20:02 | 39.78400 | 13.51596 | 35044 ft | 439 kts | 157° |
| 2026-05-06 20:03 | 39.72958 | 13.55310 | 35035 ft | 443 kts | 157° |
| 2026-05-06 20:03 | 39.67498 | 13.59034 | 35050 ft | 443 kts | 157° |
| 2026-05-06 20:04 | 39.62020 | 13.62759 | 35040 ft | 445 kts | 157° |
| 2026-05-06 20:04 | 39.56524 | 13.66476 | 35042 ft | 446 kts | 157° |
| 2026-05-06 20:05 | 39.51061 | 13.70174 | 35047 ft | 446 kts | 157° |
| 2026-05-06 20:05 | 39.45556 | 13.73899 | 35039 ft | 446 kts | 157° |
| 2026-05-06 20:06 | 39.40051 | 13.77613 | 35020 ft | 447 kts | 158° |
| 2026-05-06 20:06 | 39.34519 | 13.81338 | 35026 ft | 449 kts | 158° |
| 2026-05-06 20:07 | 39.28974 | 13.85086 | 35026 ft | 450 kts | 158° |
| 2026-05-06 20:07 | 39.23421 | 13.88836 | 35032 ft | 451 kts | 157° |
| 2026-05-06 20:08 | 39.17857 | 13.92561 | 35021 ft | 451 kts | 157° |
| 2026-05-06 20:08 | 39.12279 | 13.96284 | 35032 ft | 452 kts | 157° |
| 2026-05-06 20:09 | 39.06697 | 14.00012 | 35035 ft | 452 kts | 157° |
| 2026-05-06 20:09 | 39.03865 | 14.01757 | 34840 ft | 450 kts | 161° |
| 2026-05-06 20:09 | 39.00941 | 14.03312 | 33718 ft | 460 kts | 163° |
| 2026-05-06 20:10 | 38.97947 | 14.04819 | 32783 ft | 463 kts | 163° |
| 2026-05-06 20:10 | 38.94943 | 14.06288 | 32002 ft | 462 kts | 164° |
| 2026-05-06 20:10 | 38.91938 | 14.07745 | 31310 ft | 461 kts | 164° |
| 2026-05-06 20:10 | 38.88946 | 14.09200 | 30670 ft | 459 kts | 164° |
| 2026-05-06 20:11 | 38.85975 | 14.10657 | 30090 ft | 456 kts | 163° |
| 2026-05-06 20:11 | 38.83028 | 14.12118 | 29454 ft | 452 kts | 163° |
| 2026-05-06 20:11 | 38.80114 | 14.13576 | 28896 ft | 446 kts | 163° |
| 2026-05-06 20:11 | 38.77228 | 14.15026 | 28253 ft | 443 kts | 163° |
| 2026-05-06 20:12 | 38.75337 | 14.15975 | 27926 ft | 438 kts | 163° |
| 2026-05-06 20:12 | 38.72512 | 14.17385 | 27391 ft | 433 kts | 163° |
| 2026-05-06 20:12 | 38.69727 | 14.18768 | 26926 ft | 426 kts | 163° |
| 2026-05-06 20:12 | 38.66985 | 14.20125 | 26464 ft | 419 kts | 163° |
| 2026-05-06 20:13 | 38.64290 | 14.21456 | 26014 ft | 413 kts | 163° |
| 2026-05-06 20:13 | 38.61631 | 14.22771 | 25580 ft | 407 kts | 163° |
| 2026-05-06 20:13 | 38.59012 | 14.24066 | 25158 ft | 401 kts | 163° |
| 2026-05-06 20:13 | 38.56430 | 14.25344 | 24741 ft | 395 kts | 162° |
| 2026-05-06 20:14 | 38.53882 | 14.26604 | 24328 ft | 390 kts | 162° |
| 2026-05-06 20:14 | 38.51362 | 14.27847 | 23916 ft | 386 kts | 163° |
| 2026-05-06 20:14 | 38.48869 | 14.29073 | 23483 ft | 382 kts | 163° |
| 2026-05-06 20:14 | 38.46406 | 14.30283 | 23024 ft | 377 kts | 163° |
| 2026-05-06 20:15 | 38.43979 | 14.31477 | 22610 ft | 371 kts | 163° |
| 2026-05-06 20:15 | 38.41589 | 14.32652 | 22194 ft | 365 kts | 163° |
| 2026-05-06 20:15 | 38.39232 | 14.33811 | 21769 ft | 361 kts | 163° |
| 2026-05-06 20:15 | 38.36907 | 14.34955 | 21362 ft | 356 kts | 163° |
| 2026-05-06 20:16 | 38.34609 | 14.36086 | 20926 ft | 352 kts | 163° |
| 2026-05-06 20:16 | 38.32340 | 14.37203 | 20508 ft | 349 kts | 163° |
| 2026-05-06 20:16 | 38.30088 | 14.38310 | 20089 ft | 345 kts | 163° |
| 2026-05-06 20:16 | 38.27855 | 14.39404 | 19672 ft | 342 kts | 163° |
| 2026-05-06 20:17 | 38.25640 | 14.40486 | 19257 ft | 340 kts | 163° |
| 2026-05-06 20:17 | 38.23471 | 14.41545 | 18843 ft | 337 kts | 164° |
| 2026-05-06 20:17 | 38.21288 | 14.42612 | 18429 ft | 335 kts | 164° |
| 2026-05-06 20:17 | 38.19121 | 14.43671 | 17988 ft | 332 kts | 164° |
| 2026-05-06 20:18 | 38.16977 | 14.44719 | 17587 ft | 328 kts | 164° |
| 2026-05-06 20:18 | 38.14859 | 14.45755 | 17172 ft | 324 kts | 164° |
| 2026-05-06 20:18 | 38.12768 | 14.46779 | 16778 ft | 320 kts | 164° |
| 2026-05-06 20:18 | 38.10699 | 14.47789 | 16375 ft | 317 kts | 164° |
| 2026-05-06 20:19 | 38.08654 | 14.48785 | 15991 ft | 314 kts | 164° |
| 2026-05-06 20:19 | 38.06619 | 14.49775 | 15600 ft | 312 kts | 164° |
| 2026-05-06 20:19 | 38.04599 | 14.50756 | 15224 ft | 310 kts | 164° |
| 2026-05-06 20:19 | 38.02592 | 14.51730 | 14844 ft | 308 kts | 165° |
| 2026-05-06 20:20 | 38.00599 | 14.52696 | 14458 ft | 306 kts | 165° |
| 2026-05-06 20:20 | 37.98618 | 14.53657 | 14078 ft | 304 kts | 165° |
| 2026-05-06 20:20 | 37.96651 | 14.54611 | 13666 ft | 302 kts | 164° |
| 2026-05-06 20:20 | 37.94694 | 14.55563 | 13288 ft | 300 kts | 164° |
| 2026-05-06 20:21 | 37.92750 | 14.56506 | 12918 ft | 298 kts | 164° |
| 2026-05-06 20:21 | 37.90818 | 14.57442 | 12549 ft | 296 kts | 164° |
| 2026-05-06 20:21 | 37.88901 | 14.58371 | 12181 ft | 294 kts | 163° |
| 2026-05-06 20:21 | 37.86998 | 14.59290 | 11811 ft | 292 kts | 163° |
| 2026-05-06 20:22 | 37.85110 | 14.60201 | 11458 ft | 290 kts | 163° |
| 2026-05-06 20:22 | 37.83228 | 14.61109 | 11103 ft | 289 kts | 163° |
| 2026-05-06 20:22 | 37.81357 | 14.62013 | 10745 ft | 287 kts | 162° |
| 2026-05-06 20:22 | 37.79500 | 14.62911 | 10390 ft | 285 kts | 162° |
| 2026-05-06 20:23 | 37.77659 | 14.63801 | 10231 ft | 284 kts | 162° |
| 2026-05-06 20:23 | 37.75810 | 14.64697 | 10123 ft | 285 kts | 162° |
| 2026-05-06 20:23 | 37.73958 | 14.65591 | 9950 ft | 286 kts | 162° |
| 2026-05-06 20:23 | 37.72092 | 14.66489 | 9472 ft | 285 kts | 161° |
| 2026-05-06 20:24 | 37.70254 | 14.67372 | 9115 ft | 281 kts | 161° |
| 2026-05-06 20:24 | 37.68431 | 14.68252 | 8696 ft | 280 kts | 161° |
| 2026-05-06 20:24 | 37.66648 | 14.69112 | 8251 ft | 275 kts | 160° |
| 2026-05-06 20:24 | 37.64865 | 14.69969 | 7664 ft | 273 kts | 160° |
| 2026-05-06 20:25 | 37.63102 | 14.70814 | 7131 ft | 269 kts | 160° |
| 2026-05-06 20:25 | 37.61347 | 14.71657 | 6620 ft | 265 kts | 160° |
| 2026-05-06 20:25 | 37.59655 | 14.72473 | 6158 ft | 265 kts | 159° |
| 2026-05-06 20:25 | 37.57933 | 14.73300 | 5772 ft | 263 kts | 159° |
| 2026-05-06 20:26 | 37.56244 | 14.74110 | 5302 ft | 257 kts | 159° |
| 2026-05-06 20:26 | 37.54583 | 14.74906 | 4842 ft | 254 kts | 159° |
| 2026-05-06 20:26 | 37.52937 | 14.75693 | 4444 ft | 251 kts | 159° |
| 2026-05-06 20:26 | 37.51352 | 14.76450 | 4365 ft | 237 kts | 159° |
| 2026-05-06 20:27 | 37.49835 | 14.77176 | 4187 ft | 229 kts | 158° |
| 2026-05-06 20:27 | 37.48374 | 14.77872 | 4016 ft | 220 kts | 158° |
| 2026-05-06 20:27 | 37.46994 | 14.78557 | 3888 ft | 206 kts | 152° |
| 2026-05-06 20:27 | 37.45857 | 14.79598 | 3824 ft | 202 kts | 134° |
| 2026-05-06 20:28 | 37.45061 | 14.81044 | 3683 ft | 203 kts | 116° |
| 2026-05-06 20:28 | 37.44700 | 14.82758 | 3476 ft | 204 kts | 96° |
| 2026-05-06 20:28 | 37.44788 | 14.84537 | 3233 ft | 203 kts | 85° |
| 2026-05-06 20:28 | 37.44939 | 14.86251 | 2989 ft | 191 kts | 86° |
| 2026-05-06 20:29 | 37.45080 | 14.87876 | 2729 ft | 182 kts | 86° |
| 2026-05-06 20:29 | 37.45213 | 14.89422 | 2493 ft | 174 kts | 86° |
| 2026-05-06 20:29 | 37.45340 | 14.90903 | 2269 ft | 166 kts | 86° |
| 2026-05-06 20:29 | 37.45462 | 14.92319 | 2051 ft | 159 kts | 85° |
| 2026-05-06 20:30 | 37.45577 | 14.93673 | 1891 ft | 149 kts | 86° |
| 2026-05-06 20:30 | 37.45788 | 14.96140 | 1488 ft | 138 kts | 83° |
| 2026-05-06 20:30 | 37.45889 | 14.97333 | 1318 ft | 137 kts | 85° |
| 2026-05-06 20:31 | 37.45989 | 14.98526 | 1166 ft | 136 kts | 83° |
| 2026-05-06 20:31 | 37.46086 | 14.99712 | 939 ft | 137 kts | 84° |
| 2026-05-06 20:31 | 37.46185 | 15.00908 | 745 ft | 137 kts | 83° |
| 2026-05-06 20:31 | 37.46287 | 15.02109 | 589 ft | 140 kts | 82° |
| 2026-05-06 20:32 | 37.46384 | 15.03330 | 373 ft | 139 kts | 81° |
| 2026-05-06 20:32 | 37.46498 | 15.04517 | 201 ft | 135 kts | 81° |
| 2026-05-06 20:32 | 37.46593 | 15.05679 | 44 ft | 129 kts | 81° |
| 2026-05-06 20:32 | 37.46679 | 15.06642 | 34 ft | 88 kts | 84° |
| 2026-05-06 20:33 | 37.46724 | 15.07190 | 35 ft | 41 kts | 84° |
| 2026-05-06 20:33 | 37.46753 | 15.07489 | 37 ft | 28 kts | 79° |
| 2026-05-06 20:33 | 37.46806 | 15.07677 | 36 ft | 18 kts | 61° |
| 2026-05-06 20:33 | 37.46862 | 15.07784 | 33 ft | 13 kts | 54° |
| 2026-05-06 20:34 | 37.46919 | 15.07832 | 33 ft | 10 kts | 342° |
| 2026-05-06 20:34 | 37.46937 | 15.07751 | 33 ft | 11 kts | 264° |
| 2026-05-06 20:34 | 37.46929 | 15.07649 | 33 ft | 12 kts | 264° |
| 2026-05-06 20:34 | 37.46920 | 15.07537 | 33 ft | 14 kts | 263° |
| 2026-05-06 20:35 | 37.46909 | 15.07411 | 32 ft | 15 kts | 264° |
| 2026-05-06 20:35 | 37.46897 | 15.07273 | 32 ft | 16 kts | 264° |
| 2026-05-06 20:35 | 37.46885 | 15.07124 | 32 ft | 18 kts | 264° |
| 2026-05-06 20:35 | 37.46872 | 15.06964 | 32 ft | 19 kts | 264° |
| 2026-05-06 20:36 | 37.46862 | 15.06849 | 32 ft | 11 kts | 264° |
| 2026-05-06 20:36 | 37.46861 | 15.06784 | 32 ft | 6 kts | 296° |
| 2026-05-06 20:36 | 37.46899 | 15.06767 | 32 ft | 4 kts | 354° |
| 2026-05-06 20:36 | 37.46924 | 15.06763 | 32 ft | 3 kts | 354° |
| 2026-05-06 20:37 | 37.46930 | 15.06762 | 32 ft | 0 kts | 354° |
| 2026-05-06 20:43 | 37.46931 | 15.06762 | 32 ft | 0 kts | 354° |